createdAt,value
2018-08-12T00:00:01.664Z,2.97
2018-08-12T00:02:30.770Z,3.93
2018-08-12T00:04:58.713Z,4.33
2018-08-12T00:07:29.254Z,4.17
2018-08-12T00:09:57.639Z,4.13
2018-08-12T00:12:25.800Z,4.20
2018-08-12T00:14:54.445Z,3.67
2018-08-12T00:17:23.413Z,4.03
2018-08-12T00:19:51.386Z,4.00
2018-08-12T00:22:19.431Z,4.20
2018-08-12T00:24:47.452Z,4.53
2018-08-12T00:27:15.959Z,4.50
2018-08-12T00:29:43.932Z,4.77
2018-08-12T00:32:11.886Z,3.80
2018-08-12T00:34:40.688Z,3.40
2018-08-12T00:37:08.989Z,3.57
2018-08-12T00:39:36.926Z,3.50
2018-08-12T00:42:06.248Z,3.10
2018-08-12T00:44:34.238Z,3.43
2018-08-12T00:47:02.206Z,3.17
2018-08-12T00:49:30.186Z,3.30
2018-08-12T00:51:58.837Z,3.60
2018-08-12T00:54:26.839Z,3.90
2018-08-12T00:56:54.739Z,4.13
2018-08-12T00:59:24.123Z,4.30
2018-08-12T01:01:52.046Z,4.27
2018-08-12T01:04:20.019Z,4.30
2018-08-12T01:06:47.934Z,4.80
2018-08-12T01:09:15.893Z,4.47
2018-08-12T01:11:44.274Z,4.10
2018-08-12T01:14:12.191Z,3.93
2018-08-12T01:16:40.160Z,3.80
2018-08-12T01:19:08.649Z,4.87
2018-08-12T01:21:36.598Z,4.73
2018-08-12T01:24:05.224Z,5.60
2018-08-12T01:26:33.158Z,4.40
2018-08-12T01:29:01.159Z,3.90
2018-08-12T01:31:29.147Z,4.13
2018-08-12T01:33:57.806Z,4.57
2018-08-12T01:36:25.725Z,4.10
2018-08-12T01:38:53.670Z,4.60
2018-08-12T01:41:21.627Z,4.37
2018-08-12T01:43:49.600Z,4.30
2018-08-12T01:46:17.524Z,4.20
2018-08-12T01:48:46.163Z,4.07
2018-08-12T01:51:14.032Z,3.90
2018-08-12T01:53:41.968Z,3.83
2018-08-12T01:56:09.939Z,3.50
2018-08-12T01:58:37.885Z,3.47
2018-08-12T02:01:06.524Z,4.43
2018-08-12T02:03:34.811Z,4.37
2018-08-12T02:06:02.716Z,4.23
2018-08-12T02:08:30.701Z,4.03
2018-08-12T02:10:59.228Z,4.00
2018-08-12T02:13:27.209Z,4.40
2018-08-12T02:15:56.896Z,4.77
2018-08-12T02:18:24.793Z,4.00
2018-08-12T02:20:52.725Z,4.20
2018-08-12T02:23:21.313Z,4.30
2018-08-12T02:25:49.230Z,4.80
2018-08-12T02:28:17.111Z,4.10
2018-08-12T02:30:45.021Z,4.27
2018-08-12T02:33:12.952Z,4.70
2018-08-12T02:35:40.901Z,4.47
2018-08-12T02:38:10.214Z,3.90
2018-08-12T02:40:38.738Z,4.10
2018-08-12T02:43:06.914Z,4.23
2018-08-12T02:45:35.587Z,4.20
2018-08-12T02:48:03.623Z,3.50
2018-08-12T02:50:31.558Z,3.73
2018-08-12T02:52:59.503Z,4.00
2018-08-12T02:55:27.457Z,3.97
2018-08-12T02:57:55.436Z,4.13
2018-08-12T03:00:23.381Z,4.40
2018-08-12T03:02:51.355Z,3.93
2018-08-12T03:05:19.273Z,3.57
2018-08-12T03:07:47.191Z,4.33
2018-08-12T03:10:15.232Z,3.80
2018-08-12T03:12:43.886Z,3.43
2018-08-12T03:15:11.880Z,3.27
2018-08-12T03:17:39.850Z,4.00
2018-08-12T03:20:10.675Z,3.87
2018-08-12T03:22:38.612Z,3.80
2018-08-12T03:25:08.109Z,4.17
2018-08-12T03:27:36.178Z,3.50
2018-08-12T03:30:05.875Z,4.13
2018-08-12T03:32:35.198Z,3.80
2018-08-12T03:35:03.420Z,4.67
2018-08-12T03:37:32.253Z,4.63
2018-08-12T03:40:00.897Z,4.50
2018-08-12T03:42:28.895Z,4.03
2018-08-12T03:44:56.837Z,4.47
2018-08-12T03:47:24.755Z,5.30
2018-08-12T03:49:52.705Z,4.80
2018-08-12T03:52:20.657Z,4.83
2018-08-12T03:54:48.732Z,4.10
2018-08-12T03:57:17.201Z,3.50
2018-08-12T03:59:46.021Z,4.23
2018-08-12T04:02:13.939Z,3.37
2018-08-12T04:04:41.916Z,3.93
2018-08-12T04:07:09.804Z,4.20
2018-08-12T04:09:37.753Z,4.30
2018-08-12T04:12:05.712Z,3.70
2018-08-12T04:14:34.264Z,4.30
2018-08-12T04:17:02.747Z,3.83
2018-08-12T04:19:31.392Z,4.07
2018-08-12T04:21:59.788Z,4.03
2018-08-12T04:24:28.666Z,4.13
2018-08-12T04:26:57.562Z,4.10
2018-08-12T04:29:25.451Z,4.33
2018-08-12T04:31:53.431Z,4.50
2018-08-12T04:34:21.332Z,5.07
2018-08-12T04:36:49.327Z,4.00
2018-08-12T04:39:17.981Z,3.93
2018-08-12T04:41:45.892Z,5.00
2018-08-12T04:44:13.885Z,4.17
2018-08-12T04:46:41.847Z,4.43
2018-08-12T04:49:10.301Z,5.10
2018-08-12T04:51:38.714Z,4.30
2018-08-12T04:54:07.292Z,5.70
2018-08-12T04:56:35.443Z,4.70
2018-08-12T04:59:03.537Z,4.10
2018-08-12T05:01:31.507Z,4.50
2018-08-12T05:04:00.102Z,5.10
2018-08-12T05:06:28.652Z,4.70
2018-08-12T05:08:56.650Z,5.27
2018-08-12T05:11:24.787Z,5.67
2018-08-12T05:13:52.689Z,5.80
2018-08-12T05:16:20.826Z,5.27
2018-08-12T05:18:49.021Z,4.73
2018-08-12T05:21:17.528Z,5.20
2018-08-12T05:23:45.377Z,5.33
2018-08-12T05:26:13.321Z,5.80
2018-08-12T05:28:41.357Z,4.90
2018-08-12T05:31:09.588Z,4.70
2018-08-12T05:33:38.908Z,4.63
2018-08-12T05:36:07.231Z,4.67
2018-08-12T05:38:35.841Z,4.90
2018-08-12T05:41:03.981Z,5.30
2018-08-12T05:43:31.951Z,4.80
2018-08-12T05:45:59.874Z,4.70
2018-08-12T05:48:27.849Z,5.80
2018-08-12T05:50:56.358Z,4.97
2018-08-12T05:53:24.995Z,4.97
2018-08-12T05:55:53.100Z,5.30
2018-08-12T05:58:21.454Z,4.70
2018-08-12T06:00:50.119Z,4.63
2018-08-12T06:03:18.129Z,4.80
2018-08-12T06:05:46.080Z,4.30
2018-08-12T06:08:14.649Z,4.17
2018-08-12T06:10:42.548Z,2.93
2018-08-12T06:13:10.637Z,3.37
2018-08-12T06:15:39.097Z,3.50
2018-08-12T06:18:07.099Z,4.50
2018-08-12T06:20:35.027Z,3.30
2018-08-12T06:23:04.221Z,3.70
2018-08-12T06:25:32.192Z,3.53
2018-08-12T06:28:00.177Z,3.70
2018-08-12T06:30:28.091Z,3.37
2018-08-12T06:32:56.020Z,3.07
2018-08-12T06:35:24.592Z,2.90
2018-08-12T06:37:54.132Z,3.17
2018-08-12T06:40:22.100Z,2.87
2018-08-12T06:42:50.092Z,3.20
2018-08-12T06:45:18.484Z,3.50
2018-08-12T06:47:47.576Z,2.43
2018-08-12T06:50:15.543Z,3.17
2018-08-12T06:52:43.680Z,3.80
2018-08-12T06:55:12.566Z,3.10
2018-08-12T06:57:41.600Z,3.07
2018-08-12T07:00:14.565Z,2.73
2018-08-12T07:02:43.469Z,2.50
2018-08-12T07:05:11.988Z,2.90
2018-08-12T07:07:40.013Z,2.10
2018-08-12T07:10:12.976Z,2.53
2018-08-12T07:12:41.970Z,2.43
2018-08-12T07:15:12.578Z,2.67
2018-08-12T07:17:42.465Z,2.67
2018-08-12T07:20:11.884Z,2.27
2018-08-12T07:22:40.035Z,2.33
2018-08-12T07:25:09.959Z,2.20
2018-08-12T07:27:39.967Z,3.13
2018-08-12T07:30:09.814Z,2.87
2018-08-12T07:32:37.847Z,2.50
2018-08-12T07:35:06.659Z,2.70
2018-08-12T07:37:34.587Z,2.80
2018-08-12T07:40:02.580Z,2.73
2018-08-12T07:42:31.228Z,7.80
2018-08-12T07:44:59.141Z,2.23
2018-08-12T07:47:27.158Z,2.33
2018-08-12T07:49:55.118Z,2.13
2018-08-12T07:52:24.295Z,2.17
2018-08-12T07:54:53.013Z,2.50
2018-08-12T07:57:20.940Z,2.03
2018-08-12T07:59:48.931Z,2.10
2018-08-12T08:02:16.898Z,2.10
2018-08-12T08:04:44.833Z,2.10
2018-08-12T08:07:12.891Z,1.40
2018-08-12T08:09:40.845Z,1.37
2018-08-12T08:12:09.434Z,2.00
2018-08-12T08:14:37.665Z,2.20
2018-08-12T08:17:06.411Z,1.60
2018-08-12T08:19:34.321Z,1.90
2018-08-12T08:22:02.244Z,2.10
2018-08-12T08:24:30.214Z,1.77
2018-08-12T08:26:58.877Z,1.67
2018-08-12T08:29:28.698Z,1.47
2018-08-12T08:31:56.721Z,1.63
2018-08-12T08:34:24.636Z,1.90
2018-08-12T08:36:53.170Z,1.77
2018-08-12T08:39:21.055Z,2.37
2018-08-12T08:41:49.071Z,1.50
2018-08-12T08:44:17.040Z,1.70
2018-08-12T08:46:44.986Z,1.70
2018-08-12T08:49:13.004Z,1.43
2018-08-12T08:51:40.963Z,1.47
2018-08-12T08:54:08.937Z,1.60
2018-08-12T08:56:36.934Z,1.70
2018-08-12T08:59:04.913Z,1.90
2018-08-12T09:01:32.833Z,1.37
2018-08-12T09:04:01.800Z,1.40
2018-08-12T09:06:29.721Z,1.50
2018-08-12T09:08:58.382Z,1.60
2018-08-12T09:11:26.420Z,1.40
2018-08-12T09:13:55.313Z,1.37
2018-08-12T09:16:23.944Z,1.40
2018-08-12T09:18:52.599Z,1.53
2018-08-12T09:21:20.730Z,1.60
2018-08-12T09:23:48.695Z,1.60
2018-08-12T09:26:16.586Z,1.60
2018-08-12T09:28:44.553Z,1.50
2018-08-12T09:31:12.480Z,1.47
2018-08-12T09:33:40.376Z,1.70
2018-08-12T09:36:09.100Z,1.50
2018-08-12T09:38:37.021Z,1.80
2018-08-12T09:41:05.399Z,1.40
2018-08-12T09:43:33.306Z,1.77
2018-08-12T09:46:01.824Z,1.63
2018-08-12T09:48:29.815Z,1.43
2018-08-12T09:50:58.299Z,1.33
2018-08-12T09:53:26.245Z,1.80
2018-08-12T09:55:54.171Z,1.63
2018-08-12T09:58:22.154Z,1.70
2018-08-12T10:00:50.829Z,1.87
2018-08-12T10:03:19.047Z,1.63
2018-08-12T10:05:46.959Z,1.50
2018-08-12T10:08:15.869Z,1.37
2018-08-12T10:10:44.542Z,1.77
2018-08-12T10:13:12.522Z,1.53
2018-08-12T10:15:40.565Z,1.50
2018-08-12T10:18:08.569Z,1.40
2018-08-12T10:20:37.460Z,1.37
2018-08-12T10:23:05.624Z,1.57
2018-08-12T10:25:33.598Z,1.43
2018-08-12T10:28:01.576Z,2.53
2018-08-12T10:30:29.601Z,1.40
2018-08-12T10:32:58.197Z,1.60
2018-08-12T10:35:26.153Z,1.63
2018-08-12T10:37:54.106Z,2.00
2018-08-12T10:40:22.816Z,1.53
2018-08-12T10:42:50.836Z,1.40
2018-08-12T10:45:18.798Z,1.60
2018-08-12T10:47:47.833Z,1.50
2018-08-12T10:50:18.384Z,2.10
2018-08-12T10:52:47.555Z,1.47
2018-08-12T10:55:17.980Z,1.20
2018-08-12T10:57:46.379Z,2.20
2018-08-12T11:00:21.907Z,1.53
2018-08-12T11:02:50.627Z,1.57
2018-08-12T11:05:19.087Z,1.40
2018-08-12T11:07:57.368Z,1.37
2018-08-12T11:10:26.581Z,1.47
2018-08-12T11:12:55.174Z,1.63
2018-08-12T11:15:23.374Z,1.90
2018-08-12T11:17:52.528Z,1.63
2018-08-12T11:20:20.628Z,1.50
2018-08-12T11:22:48.655Z,1.83
2018-08-12T11:25:37.077Z,1.70
2018-08-12T11:28:05.913Z,1.60
2018-08-12T11:30:33.844Z,1.70
2018-08-12T11:33:02.492Z,1.60
2018-08-12T11:35:30.479Z,1.50
2018-08-12T11:37:58.532Z,1.70
2018-08-12T11:40:27.026Z,1.57
2018-08-12T11:42:55.586Z,1.60
2018-08-12T11:45:23.582Z,1.70
2018-08-12T11:47:51.522Z,1.60
2018-08-12T11:50:19.524Z,1.43
2018-08-12T11:52:48.001Z,2.00
2018-08-12T11:55:17.354Z,1.40
2018-08-12T11:57:45.423Z,1.60
2018-08-12T12:00:15.692Z,1.80
2018-08-12T12:02:46.055Z,1.57
2018-08-12T12:05:14.695Z,2.10
2018-08-12T12:07:43.390Z,1.70
2018-08-12T12:10:15.685Z,2.07
2018-08-12T12:12:44.767Z,1.93
2018-08-12T12:15:13.935Z,1.60
2018-08-12T12:17:42.838Z,1.90
2018-08-12T12:20:12.448Z,1.60
2018-08-12T12:25:17.268Z,1.60
2018-08-12T12:27:45.823Z,1.70
2018-08-12T12:30:17.129Z,1.73
2018-08-12T12:32:46.121Z,1.87
2018-08-12T12:35:15.201Z,1.67
2018-08-12T12:37:43.539Z,1.77
2018-08-12T12:40:13.483Z,1.93
2018-08-12T12:42:41.799Z,1.87
2018-08-12T12:45:11.193Z,2.23
2018-08-12T12:47:39.859Z,1.83
2018-08-12T12:50:14.239Z,2.10
2018-08-12T12:52:42.194Z,1.93
2018-08-12T12:55:10.178Z,1.70
2018-08-12T12:57:38.399Z,1.67
2018-08-12T13:00:08.924Z,2.00
2018-08-12T13:02:37.425Z,1.73
2018-08-12T13:05:07.478Z,1.80
2018-08-12T13:07:35.445Z,2.10
2018-08-12T13:10:04.390Z,1.87
2018-08-12T13:12:32.629Z,1.70
2018-08-12T13:15:01.232Z,2.07
2018-08-12T13:17:29.234Z,1.50
2018-08-12T13:19:57.159Z,1.50
2018-08-12T13:22:25.102Z,1.60
2018-08-12T13:24:54.204Z,2.10
2018-08-12T13:27:22.791Z,1.77
2018-08-12T13:29:50.700Z,1.93
2018-08-12T13:32:18.652Z,1.97
2018-08-12T13:34:46.588Z,2.07
2018-08-12T13:37:14.627Z,2.17
2018-08-12T13:39:42.607Z,1.93
2018-08-12T13:42:10.604Z,2.03
2018-08-12T13:44:38.588Z,2.20
2018-08-12T13:47:06.574Z,2.17
2018-08-12T13:49:34.488Z,1.90
2018-08-12T13:52:02.479Z,1.77
2018-08-12T13:54:30.613Z,2.07
2018-08-12T13:56:58.613Z,2.20
2018-08-12T13:59:26.820Z,2.47
2018-08-12T14:01:56.364Z,2.70
2018-08-12T14:04:24.287Z,2.70
2018-08-12T14:06:55.698Z,2.13
2018-08-12T14:09:23.625Z,1.80
2018-08-12T14:11:51.676Z,2.00
2018-08-12T14:14:20.327Z,2.20
2018-08-12T14:16:48.328Z,2.33
2018-08-12T14:19:16.422Z,2.00
2018-08-12T14:21:44.370Z,2.17
2018-08-12T14:24:12.676Z,2.37
2018-08-12T14:26:40.683Z,2.03
2018-08-12T14:29:08.643Z,1.90
2018-08-12T14:31:36.920Z,1.90
2018-08-12T14:34:06.223Z,1.90
2018-08-12T14:36:34.360Z,2.07
2018-08-12T14:39:02.494Z,2.40
2018-08-12T14:41:31.310Z,2.10
2018-08-12T14:43:59.223Z,2.20
2018-08-12T14:46:29.019Z,2.00
2018-08-12T14:48:57.274Z,2.27
2018-08-12T14:51:26.260Z,2.17
2018-08-12T14:53:55.465Z,2.73
2018-08-12T14:56:23.358Z,2.00
2018-08-12T14:58:51.556Z,1.87
2018-08-12T15:01:20.069Z,2.40
2018-08-12T15:03:47.963Z,2.00
2018-08-12T15:06:15.844Z,2.40
2018-08-12T15:08:43.735Z,2.40
2018-08-12T15:11:11.673Z,2.00
2018-08-12T15:13:39.533Z,2.33
2018-08-12T15:16:08.011Z,2.50
2018-08-12T15:18:36.754Z,1.87
2018-08-12T15:21:04.673Z,2.00
2018-08-12T15:23:32.727Z,2.30
2018-08-12T15:26:00.750Z,2.60
2018-08-12T15:28:28.651Z,2.33
2018-08-12T15:30:56.996Z,2.00
2018-08-12T15:33:25.480Z,2.13
2018-08-12T15:35:53.433Z,2.20
2018-08-12T15:38:21.309Z,2.37
2018-08-12T15:40:50.207Z,2.57
2018-08-12T15:43:18.153Z,2.00
2018-08-12T15:45:46.086Z,2.20
2018-08-12T15:48:13.994Z,2.57
2018-08-12T15:50:42.409Z,2.30
2018-08-12T15:53:10.912Z,1.87
2018-08-12T15:55:38.856Z,1.87
2018-08-12T15:58:06.882Z,2.97
2018-08-12T16:00:35.077Z,2.70
2018-08-12T16:03:03.406Z,5.70
2018-08-12T16:05:31.822Z,3.47
2018-08-12T16:08:00.453Z,2.60
2018-08-12T16:10:28.449Z,2.27
2018-08-12T16:12:58.027Z,2.40
2018-08-12T16:15:26.059Z,2.30
2018-08-12T16:17:54.054Z,2.57
2018-08-12T16:20:22.049Z,2.67
2018-08-12T16:22:50.682Z,2.20
2018-08-12T16:25:21.027Z,2.30
2018-08-12T16:27:49.057Z,2.10
2018-08-12T16:30:18.245Z,2.27
2018-08-12T16:32:46.322Z,2.57
2018-08-12T16:35:15.586Z,2.10
2018-08-12T16:37:44.348Z,2.33
2018-08-12T16:40:15.430Z,2.40
2018-08-12T16:42:43.452Z,2.40
2018-08-12T16:45:13.502Z,2.47
2018-08-12T16:47:41.675Z,2.80
2018-08-12T16:50:10.795Z,2.30
2018-08-12T16:52:39.339Z,2.00
2018-08-12T16:55:10.394Z,2.40
2018-08-12T16:57:39.060Z,3.10
2018-08-12T17:00:10.884Z,4.03
2018-08-12T17:02:38.864Z,2.63
2018-08-12T17:05:09.185Z,2.60
2018-08-12T17:07:38.127Z,4.70
2018-08-12T17:10:07.325Z,2.70
2018-08-12T17:12:35.350Z,1.93
2018-08-12T17:15:04.267Z,2.50
2018-08-12T17:17:33.076Z,2.20
2018-08-12T17:20:02.372Z,4.33
2018-08-12T17:22:30.273Z,3.57
2018-08-12T17:24:58.239Z,2.30
2018-08-12T17:27:28.069Z,3.43
2018-08-12T17:29:55.975Z,2.77
2018-08-12T17:32:23.970Z,1.90
2018-08-12T17:34:52.439Z,2.33
2018-08-12T17:37:20.367Z,2.50
2018-08-12T17:39:48.739Z,2.90
2018-08-12T17:42:16.965Z,2.70
2018-08-12T17:44:45.033Z,4.87
2018-08-12T17:47:13.557Z,3.43
2018-08-12T17:49:41.456Z,3.47
2018-08-12T17:52:09.332Z,4.93
2018-08-12T17:54:37.283Z,2.73
2018-08-12T17:57:05.239Z,2.70
2018-08-12T17:59:33.228Z,3.20
2018-08-12T18:02:01.638Z,2.07
2018-08-12T18:04:29.568Z,2.10
2018-08-12T18:06:57.628Z,2.10
2018-08-12T18:09:25.579Z,2.53
2018-08-12T18:11:53.542Z,2.30
2018-08-12T18:14:22.813Z,3.93
2018-08-12T18:16:50.737Z,3.33
2018-08-12T18:19:19.064Z,3.33
2018-08-12T18:21:48.261Z,4.10
2018-08-12T18:24:17.409Z,2.37
2018-08-12T18:26:45.339Z,3.37
2018-08-12T18:29:13.354Z,3.77
2018-08-12T18:31:41.733Z,2.77
2018-08-12T18:34:09.708Z,2.70
2018-08-12T18:36:37.668Z,2.50
2018-08-12T18:39:09.108Z,3.00
2018-08-12T18:41:37.046Z,2.83
2018-08-12T18:44:05.480Z,2.73
2018-08-12T18:46:33.418Z,2.60
2018-08-12T18:49:01.400Z,2.37
2018-08-12T18:51:30.062Z,2.60
2018-08-12T18:53:58.035Z,2.77
2018-08-12T18:56:26.056Z,3.50
2018-08-12T18:58:54.128Z,2.30
2018-08-12T19:01:22.125Z,2.50
2018-08-12T19:03:49.976Z,3.80
2018-08-12T19:06:18.033Z,2.27
2018-08-12T19:08:45.976Z,2.90
2018-08-12T19:11:13.918Z,2.70
2018-08-12T19:13:41.828Z,2.73
2018-08-12T19:16:11.039Z,2.30
2018-08-12T19:18:39.387Z,3.03
2018-08-12T19:21:08.315Z,2.37
2018-08-12T19:23:36.897Z,2.73
2018-08-12T19:26:05.633Z,2.57
2018-08-12T19:28:33.632Z,2.70
2018-08-12T19:31:02.547Z,2.70
2018-08-12T19:33:31.445Z,2.40
2018-08-12T19:36:01.334Z,2.67
2018-08-12T19:38:29.935Z,2.50
2018-08-12T19:40:57.902Z,2.60
2018-08-12T19:43:25.852Z,2.37
2018-08-12T19:45:53.834Z,2.20
2018-08-12T19:48:23.072Z,2.50
2018-08-12T19:50:51.010Z,2.37
2018-08-12T19:53:19.238Z,2.73
2018-08-12T19:55:47.670Z,2.73
2018-08-12T19:58:16.235Z,2.47
2018-08-12T20:00:44.190Z,2.70
2018-08-12T20:03:12.144Z,2.40
2018-08-12T20:05:40.170Z,2.67
2018-08-12T20:08:08.021Z,3.13
2018-08-12T20:10:36.098Z,2.63
2018-08-12T20:13:04.128Z,3.00
2018-08-12T20:15:32.078Z,2.47
2018-08-12T20:18:00.577Z,3.00
2018-08-12T20:20:28.539Z,2.57
2018-08-12T20:22:57.563Z,2.57
2018-08-12T20:25:25.531Z,3.60
2018-08-12T20:27:53.859Z,2.87
2018-08-12T20:30:21.786Z,2.80
2018-08-12T20:32:51.333Z,2.83
2018-08-12T20:35:20.368Z,2.50
2018-08-12T20:37:49.522Z,2.47
2018-08-12T20:40:17.983Z,2.80
2018-08-12T20:42:45.935Z,2.80
2018-08-12T20:45:14.258Z,2.50
2018-08-12T20:47:42.215Z,2.70
2018-08-12T20:50:10.116Z,3.30
2018-08-12T20:52:38.625Z,2.80
2018-08-12T20:55:07.749Z,2.50
2018-08-12T20:57:35.691Z,2.80
2018-08-12T21:00:05.426Z,3.10
2018-08-12T21:02:33.372Z,3.17
2018-08-12T21:05:01.373Z,3.37
2018-08-12T21:07:29.338Z,3.43
2018-08-12T21:09:58.071Z,3.50
2018-08-12T21:12:26.586Z,3.80
2018-08-12T21:14:55.529Z,3.40
2018-08-12T21:17:23.613Z,3.37
2018-08-12T21:19:51.570Z,3.30
2018-08-12T21:22:20.586Z,3.20
2018-08-12T21:24:48.527Z,3.30
2018-08-12T21:27:16.511Z,3.47
2018-08-12T21:29:44.430Z,3.57
2018-08-12T21:32:12.384Z,3.03
2018-08-12T21:34:40.811Z,2.97
2018-08-12T21:37:09.348Z,3.60
2018-08-12T21:39:37.310Z,3.27
2018-08-12T21:42:05.296Z,3.17
2018-08-12T21:44:34.323Z,3.57
2018-08-12T21:47:02.884Z,3.03
2018-08-12T21:49:31.373Z,3.43
2018-08-12T21:51:59.327Z,3.17
2018-08-12T21:54:27.260Z,3.57
2018-08-12T21:56:55.167Z,3.60
2018-08-12T21:59:23.027Z,4.20
2018-08-12T22:01:51.195Z,3.97
2018-08-12T22:04:19.160Z,3.50
2018-08-12T22:06:48.093Z,4.00
2018-08-12T22:09:16.028Z,3.70
2018-08-12T22:11:44.335Z,3.50
2018-08-12T22:14:12.314Z,4.27
2018-08-12T22:16:40.283Z,4.10
2018-08-12T22:19:08.558Z,3.90
2018-08-12T22:21:37.031Z,4.10
2018-08-12T22:24:05.007Z,4.20
2018-08-12T22:26:32.966Z,3.73
2018-08-12T22:29:01.547Z,3.93
2018-08-12T22:31:29.490Z,4.77
2018-08-12T22:33:57.485Z,3.60
2018-08-12T22:36:25.753Z,3.57
2018-08-12T22:38:53.725Z,4.37
2018-08-12T22:41:22.325Z,4.23
2018-08-12T22:43:50.312Z,4.17
2018-08-12T22:46:18.674Z,5.10
2018-08-12T22:48:46.672Z,3.80
2018-08-12T22:51:16.025Z,4.33
2018-08-12T22:53:44.017Z,4.20
2018-08-12T22:56:11.947Z,4.50
2018-08-12T22:58:40.514Z,4.10
2018-08-12T23:01:09.239Z,4.10
2018-08-12T23:03:37.305Z,4.20
2018-08-12T23:06:05.470Z,3.97
2018-08-12T23:08:33.355Z,4.37
2018-08-12T23:11:01.336Z,3.93
2018-08-12T23:13:29.347Z,4.23
2018-08-12T23:16:12.095Z,3.60
2018-08-12T23:18:40.681Z,3.70
2018-08-12T23:21:11.018Z,4.60
2018-08-12T23:23:39.923Z,4.63
2018-08-12T23:26:09.173Z,4.13
2018-08-12T23:28:37.155Z,4.60
2018-08-12T23:31:05.472Z,4.90
2018-08-12T23:33:33.471Z,4.90
2018-08-12T23:36:02.291Z,4.87
2018-08-12T23:38:30.907Z,5.10
2018-08-12T23:40:59.345Z,4.83
2018-08-12T23:43:28.370Z,5.10
2018-08-12T23:45:57.173Z,4.90
2018-08-12T23:48:25.426Z,4.30
2018-08-12T23:50:53.427Z,4.40
2018-08-12T23:53:21.400Z,4.60
2018-08-12T23:55:50.274Z,4.63
2018-08-12T23:58:18.215Z,4.60
